createdAt,value
2022-08-12T00:00:46.650Z,110.27
2022-08-12T00:02:02.589Z,110.34
2022-08-12T00:02:51.166Z,111.29
2022-08-12T00:03:45.615Z,110.05
2022-08-12T00:04:52.955Z,110.63
2022-08-12T00:06:01.782Z,111.07
2022-08-12T00:06:47.156Z,111.44
2022-08-12T00:07:45.602Z,111.22
2022-08-12T00:08:45.775Z,111.82
2022-08-12T00:09:45.545Z,110.63
2022-08-12T00:10:52.892Z,110.71
2022-08-12T00:11:45.547Z,110.93
2022-08-12T00:12:45.720Z,111.00
2022-08-12T00:13:45.503Z,111.82
2022-08-12T00:14:45.715Z,111.37
2022-08-12T00:15:45.489Z,110.42
2022-08-12T00:16:52.312Z,111.22
2022-08-12T00:17:45.495Z,111.29
2022-08-12T00:18:45.648Z,111.00
2022-08-12T00:19:45.425Z,111.44
2022-08-12T00:20:45.529Z,110.63
2022-08-12T00:21:51.654Z,110.56
2022-08-12T00:22:45.442Z,110.78
2022-08-12T00:23:45.365Z,111.44
2022-08-12T00:24:45.438Z,111.00
2022-08-12T00:25:55.850Z,112.04
2022-08-12T00:26:52.624Z,111.82
2022-08-12T00:27:45.363Z,111.37
2022-08-12T00:28:45.313Z,111.59
2022-08-12T00:29:47.921Z,111.29
2022-08-12T00:30:45.297Z,111.59
2022-08-12T00:31:45.290Z,111.67
2022-08-12T00:32:56.403Z,111.82
2022-08-12T00:33:52.419Z,111.82
2022-08-12T00:34:49.052Z,111.82
2022-08-12T00:35:45.316Z,112.42
2022-08-12T00:36:45.208Z,112.04
2022-08-12T00:37:51.500Z,112.11
2022-08-12T00:38:45.216Z,112.34
2022-08-12T00:39:45.252Z,112.57
2022-08-12T00:40:45.224Z,112.49
2022-08-12T00:41:45.200Z,112.49
2022-08-12T00:42:51.706Z,112.64
2022-08-12T00:43:45.125Z,112.64
2022-08-12T00:44:45.100Z,112.64
2022-08-12T00:45:45.105Z,112.64
2022-08-12T00:46:45.104Z,112.72
2022-08-12T00:47:45.074Z,113.25
2022-08-12T00:48:51.329Z,113.02
2022-08-12T00:49:45.040Z,113.25
2022-08-12T00:50:46.570Z,113.18
2022-08-12T00:51:45.038Z,113.18
2022-08-12T00:52:45.030Z,113.18
2022-08-12T00:53:51.257Z,113.18
2022-08-12T00:54:46.256Z,113.40
2022-08-12T00:55:45.026Z,113.40
2022-08-12T00:56:45.023Z,113.40
2022-08-12T00:57:44.972Z,113.48
2022-08-12T00:58:46.090Z,113.40
2022-08-12T00:59:51.304Z,114.02
2022-08-12T01:00:44.971Z,113.71
2022-08-12T01:02:11.007Z,113.64
2022-08-12T01:02:45.973Z,114.02
2022-08-12T01:03:45.107Z,114.10
2022-08-12T01:04:51.124Z,114.26
2022-08-12T01:05:44.865Z,114.33
2022-08-12T01:06:44.850Z,114.41
2022-08-12T01:07:46.335Z,114.57
2022-08-12T01:08:44.822Z,114.49
2022-08-12T01:09:45.046Z,114.49
2022-08-12T01:10:51.130Z,114.33
2022-08-12T01:11:44.780Z,114.49
2022-08-12T01:12:44.779Z,114.65
2022-08-12T01:13:44.779Z,114.96
2022-08-12T01:14:45.032Z,114.80
2022-08-12T01:15:46.067Z,114.80
2022-08-12T01:16:52.211Z,114.80
2022-08-12T01:17:44.701Z,114.96
2022-08-12T01:18:45.737Z,115.12
2022-08-12T01:19:44.661Z,115.20
2022-08-12T01:20:45.028Z,115.20
2022-08-12T01:21:51.097Z,115.28
2022-08-12T01:22:44.649Z,115.52
2022-08-12T01:23:44.634Z,115.52
2022-08-12T01:24:44.817Z,115.36
2022-08-12T01:25:56.038Z,115.20
2022-08-12T01:26:46.113Z,115.44
2022-08-12T01:27:51.018Z,115.44
2022-08-12T01:28:44.580Z,115.68
2022-08-12T01:29:44.535Z,115.68
2022-08-12T01:30:46.508Z,115.84
2022-08-12T01:31:44.494Z,116.16
2022-08-12T01:32:44.522Z,116.00
2022-08-12T01:33:50.755Z,116.08
2022-08-12T01:34:44.535Z,116.00
2022-08-12T01:35:44.480Z,116.56
2022-08-12T01:36:46.020Z,115.92
2022-08-12T01:37:44.451Z,116.32
2022-08-12T01:38:50.729Z,116.40
2022-08-12T01:40:36.046Z,116.89
2022-08-12T01:40:47.200Z,116.08
2022-08-12T01:41:44.381Z,116.72
2022-08-12T01:42:45.972Z,116.16
2022-08-12T01:43:50.644Z,116.48
2022-08-12T01:44:44.369Z,116.56
2022-08-12T01:45:44.354Z,116.89
2022-08-12T01:46:44.333Z,116.32
2022-08-12T01:47:44.366Z,117.30
2022-08-12T01:48:50.980Z,116.72
2022-08-12T01:49:44.299Z,117.21
2022-08-12T01:50:44.251Z,116.64
2022-08-12T01:52:19.807Z,117.13
2022-08-12T01:52:45.243Z,116.56
2022-08-12T01:53:51.166Z,116.89
2022-08-12T01:54:44.212Z,117.21
2022-08-12T01:55:44.213Z,116.89
2022-08-12T01:56:44.183Z,117.46
2022-08-12T01:57:58.733Z,117.05
2022-08-12T01:58:45.692Z,117.21
2022-08-12T01:59:50.412Z,117.13
2022-08-12T02:00:46.003Z,117.38
2022-08-12T02:01:45.767Z,116.97
2022-08-12T02:02:45.079Z,116.56
2022-08-12T02:03:44.129Z,117.21
2022-08-12T02:04:44.100Z,117.46
2022-08-12T02:05:50.410Z,117.38
2022-08-12T02:06:44.084Z,117.21
2022-08-12T02:07:44.058Z,117.79
2022-08-12T02:08:44.063Z,117.30
2022-08-12T02:09:44.027Z,118.21
2022-08-12T02:10:52.051Z,118.29
2022-08-12T02:11:44.063Z,117.71
2022-08-12T02:12:44.024Z,117.54
2022-08-12T02:13:49.618Z,118.37
2022-08-12T02:14:45.466Z,117.71
2022-08-12T02:15:44.023Z,117.63
2022-08-12T02:16:50.326Z,117.71
2022-08-12T02:17:54.620Z,118.21
2022-08-12T02:18:45.441Z,117.87
2022-08-12T02:19:43.952Z,118.37
2022-08-12T02:20:51.285Z,118.54
2022-08-12T02:21:51.661Z,117.71
2022-08-12T02:22:43.865Z,118.54
2022-08-12T02:23:43.849Z,118.37
2022-08-12T02:24:43.858Z,118.12
2022-08-12T02:25:43.866Z,118.21
2022-08-12T02:26:43.823Z,118.46
2022-08-12T02:27:50.120Z,118.71
2022-08-12T02:28:43.795Z,118.54
2022-08-12T02:29:43.777Z,118.79
2022-08-12T02:30:43.808Z,118.29
2022-08-12T02:31:43.746Z,118.63
2022-08-12T02:32:44.308Z,119.05
2022-08-12T02:33:50.019Z,119.13
2022-08-12T02:34:43.714Z,118.79
2022-08-12T02:35:43.824Z,119.22
2022-08-12T02:36:43.685Z,119.30
2022-08-12T02:37:43.679Z,119.13
2022-08-12T02:38:43.663Z,119.47
2022-08-12T02:39:50.046Z,118.96
2022-08-12T02:40:43.685Z,118.88
2022-08-12T02:41:43.750Z,119.99
2022-08-12T02:42:43.654Z,119.22
2022-08-12T02:43:43.588Z,119.13
2022-08-12T02:44:43.588Z,119.90
2022-08-12T02:45:49.896Z,119.05
2022-08-12T02:46:43.656Z,119.47
2022-08-12T02:47:59.835Z,119.73
2022-08-12T02:48:45.047Z,119.39
2022-08-12T02:49:43.822Z,119.64
2022-08-12T02:50:49.840Z,119.56
2022-08-12T02:51:43.496Z,119.73
2022-08-12T02:52:43.503Z,119.99
2022-08-12T02:53:43.494Z,120.59
2022-08-12T02:54:43.485Z,119.56
2022-08-12T02:55:49.742Z,119.56
2022-08-12T02:56:50.238Z,119.90
2022-08-12T02:57:44.905Z,119.73
2022-08-12T02:58:45.234Z,120.24
2022-08-12T02:59:43.400Z,120.94
2022-08-12T03:00:49.770Z,121.29
2022-08-12T03:01:48.016Z,120.24
2022-08-12T03:02:44.385Z,121.03
2022-08-12T03:03:43.328Z,120.16
2022-08-12T03:04:44.142Z,120.33
2022-08-12T03:05:44.598Z,120.07
2022-08-12T03:06:49.567Z,120.59
2022-08-12T03:07:56.584Z,120.50
2022-08-12T03:08:44.802Z,120.42
2022-08-12T03:10:04.226Z,120.24
2022-08-12T03:10:45.758Z,120.76
2022-08-12T03:11:49.517Z,120.42
2022-08-12T03:12:48.834Z,120.42
2022-08-12T03:13:44.993Z,120.76
2022-08-12T03:14:43.205Z,120.68
2022-08-12T03:15:44.247Z,120.94
2022-08-12T03:16:43.180Z,121.20
2022-08-12T03:18:24.709Z,120.50
2022-08-12T03:18:46.058Z,120.85
2022-08-12T03:20:08.828Z,121.20
2022-08-12T03:20:44.177Z,121.20
2022-08-12T03:21:54.680Z,121.03
2022-08-12T03:22:50.609Z,121.11
2022-08-12T03:23:43.083Z,121.11
2022-08-12T03:24:43.057Z,120.94
2022-08-12T03:25:43.148Z,120.85
2022-08-12T03:26:43.331Z,121.20
2022-08-12T03:27:49.422Z,121.03
2022-08-12T03:28:43.105Z,120.76
2022-08-12T03:29:50.143Z,121.03
2022-08-12T03:30:44.569Z,121.29
2022-08-12T03:31:42.986Z,120.59
2022-08-12T03:32:42.983Z,120.94
2022-08-12T03:34:02.003Z,121.73
2022-08-12T03:34:44.591Z,121.11
2022-08-12T03:35:42.947Z,121.20
2022-08-12T03:36:42.938Z,121.38
2022-08-12T03:37:42.953Z,120.85
2022-08-12T03:38:42.902Z,121.64
2022-08-12T03:39:49.234Z,121.55
2022-08-12T03:40:43.290Z,121.46
2022-08-12T03:41:42.871Z,122.08
2022-08-12T03:42:42.931Z,121.82
2022-08-12T03:43:43.107Z,121.55
2022-08-12T03:44:43.788Z,121.82
2022-08-12T03:45:51.477Z,121.91
2022-08-12T03:46:43.134Z,121.82
2022-08-12T03:47:42.770Z,122.08
2022-08-12T03:48:42.769Z,121.38
2022-08-12T03:49:42.784Z,121.91
2022-08-12T03:50:42.751Z,121.55
2022-08-12T03:51:49.013Z,122.44
2022-08-12T03:52:42.710Z,122.00
2022-08-12T03:53:42.710Z,122.26
2022-08-12T03:54:42.804Z,122.35
2022-08-12T03:55:43.198Z,122.26
2022-08-12T03:56:42.734Z,122.08
2022-08-12T03:57:49.231Z,122.44
2022-08-12T03:58:42.752Z,121.73
2022-08-12T03:59:42.619Z,121.91
2022-08-12T04:00:42.679Z,122.35
2022-08-12T04:01:42.611Z,122.00
2022-08-12T04:02:42.643Z,122.17
2022-08-12T04:03:48.954Z,122.35
2022-08-12T04:04:43.706Z,122.17
2022-08-12T04:05:56.245Z,122.17
2022-08-12T04:06:44.090Z,122.08
2022-08-12T04:07:57.876Z,122.53
2022-08-12T04:08:50.382Z,122.08
2022-08-12T04:09:42.552Z,122.53
2022-08-12T04:10:42.542Z,122.17
2022-08-12T04:11:47.102Z,122.00
2022-08-12T04:12:48.769Z,121.91
2022-08-12T04:13:42.456Z,122.08
2022-08-12T04:14:48.758Z,121.64
2022-08-12T04:15:43.676Z,122.80
2022-08-12T04:16:42.453Z,121.82
2022-08-12T04:18:06.666Z,122.00
2022-08-12T04:18:43.408Z,122.35
2022-08-12T04:19:42.692Z,122.53
2022-08-12T04:20:48.976Z,122.26
2022-08-12T04:22:02.164Z,122.00
2022-08-12T04:22:43.352Z,122.80
2022-08-12T04:23:47.613Z,122.80
2022-08-12T04:24:43.804Z,122.89
2022-08-12T04:25:43.856Z,122.53
2022-08-12T04:26:48.598Z,122.62
2022-08-12T04:27:46.446Z,122.62
2022-08-12T04:28:42.282Z,122.53
2022-08-12T04:30:21.291Z,122.80
2022-08-12T04:30:43.244Z,122.80
2022-08-12T04:31:43.538Z,121.82
2022-08-12T04:32:49.766Z,122.71
2022-08-12T04:33:42.246Z,122.62
2022-08-12T04:34:42.202Z,122.53
2022-08-12T04:35:42.206Z,122.08
2022-08-12T04:36:42.214Z,122.35
2022-08-12T04:37:59.002Z,122.35
2022-08-12T04:38:43.662Z,122.35
2022-08-12T04:39:42.193Z,122.26
2022-08-12T04:40:42.749Z,122.53
2022-08-12T04:41:50.386Z,122.17
2022-08-12T04:42:43.582Z,122.35
2022-08-12T04:44:00.375Z,121.73
2022-08-12T04:44:44.621Z,122.00
2022-08-12T04:45:42.427Z,121.46
2022-08-12T04:46:42.030Z,122.00
2022-08-12T04:47:42.036Z,121.91
2022-08-12T04:48:42.046Z,121.55
2022-08-12T04:49:48.325Z,122.44
2022-08-12T04:50:42.055Z,121.55
2022-08-12T04:51:42.278Z,121.20
2022-08-12T04:52:43.666Z,122.26
2022-08-12T04:53:41.928Z,121.38
2022-08-12T04:54:42.876Z,122.35
2022-08-12T04:55:48.240Z,121.20
2022-08-12T04:56:41.976Z,121.64
2022-08-12T04:57:42.831Z,121.64
2022-08-12T04:58:41.898Z,121.64
2022-08-12T04:59:47.922Z,121.20
2022-08-12T05:00:43.395Z,121.29
2022-08-12T05:01:49.136Z,121.46
2022-08-12T05:02:42.033Z,122.26
2022-08-12T05:03:46.814Z,121.64
2022-08-12T05:04:43.602Z,121.73
2022-08-12T05:05:41.824Z,121.55
2022-08-12T05:06:48.085Z,121.11
2022-08-12T05:07:47.817Z,120.76
2022-08-12T05:08:43.327Z,121.82
2022-08-12T05:10:01.804Z,121.82
2022-08-12T05:10:44.207Z,120.59
2022-08-12T05:11:54.178Z,120.42
2022-08-12T05:12:46.304Z,120.85
2022-08-12T05:13:41.740Z,120.68
2022-08-12T05:14:41.708Z,121.03
2022-08-12T05:16:02.423Z,121.11
2022-08-12T05:16:42.711Z,121.03
2022-08-12T05:17:47.918Z,120.50
2022-08-12T05:18:45.795Z,120.94
2022-08-12T05:19:43.412Z,120.42
2022-08-12T05:20:41.615Z,120.33
2022-08-12T05:21:41.598Z,120.68
2022-08-12T05:22:42.952Z,120.59
2022-08-12T05:23:48.175Z,120.76
2022-08-12T05:24:41.587Z,120.24
2022-08-12T05:25:41.600Z,120.24
2022-08-12T05:26:41.537Z,120.33
2022-08-12T05:27:58.022Z,120.24
2022-08-12T05:28:43.328Z,120.07
2022-08-12T05:30:06.953Z,119.81
2022-08-12T05:30:42.710Z,119.30
2022-08-12T05:31:47.912Z,118.96
2022-08-12T05:32:42.951Z,119.39
2022-08-12T05:33:41.794Z,119.56
2022-08-12T05:34:47.971Z,119.90
2022-08-12T05:35:41.405Z,119.81
2022-08-12T05:36:42.359Z,119.39
2022-08-12T05:37:41.410Z,119.39
2022-08-12T05:38:41.367Z,119.13
2022-08-12T05:39:47.856Z,118.96
2022-08-12T05:40:42.653Z,118.79
2022-08-12T05:41:41.349Z,118.63
2022-08-12T05:42:41.911Z,118.37
2022-08-12T05:43:41.356Z,119.22
2022-08-12T05:44:41.323Z,119.22
2022-08-12T05:45:48.840Z,119.13
2022-08-12T05:46:41.321Z,118.71
2022-08-12T05:47:53.774Z,118.71
2022-08-12T05:48:42.797Z,118.54
2022-08-12T05:49:42.223Z,118.54
2022-08-12T05:50:47.648Z,118.63
2022-08-12T05:51:41.898Z,118.21
2022-08-12T05:52:41.955Z,118.21
2022-08-12T05:53:42.306Z,118.21
2022-08-12T05:54:56.702Z,118.04
2022-08-12T05:55:48.979Z,117.71
2022-08-12T05:56:41.141Z,117.54
2022-08-12T05:57:41.189Z,117.38
2022-08-12T05:58:41.111Z,117.21
2022-08-12T05:59:41.110Z,117.38
2022-08-12T06:00:42.051Z,117.38
2022-08-12T06:02:12.713Z,116.81
2022-08-12T06:02:42.243Z,116.97
2022-08-12T06:03:41.091Z,116.81
2022-08-12T06:04:41.049Z,116.72
2022-08-12T06:05:51.798Z,116.64
2022-08-12T06:06:42.802Z,116.56
2022-08-12T06:08:01.906Z,116.56
2022-08-12T06:08:42.815Z,116.00
2022-08-12T06:09:41.343Z,116.00
2022-08-12T06:10:41.333Z,115.76
2022-08-12T06:11:41.353Z,115.52
2022-08-12T06:12:42.625Z,115.68
2022-08-12T06:13:53.834Z,115.28
2022-08-12T06:14:42.413Z,115.28
2022-08-12T06:15:41.873Z,114.80
2022-08-12T06:16:40.925Z,114.96
2022-08-12T06:17:41.237Z,115.12
2022-08-12T06:18:40.872Z,114.80
2022-08-12T06:20:27.839Z,114.49
2022-08-12T06:20:42.022Z,114.33
2022-08-12T06:21:40.844Z,114.33
2022-08-12T06:22:41.105Z,114.18
2022-08-12T06:23:42.855Z,114.33
2022-08-12T06:24:40.860Z,114.73
2022-08-12T06:25:47.393Z,113.94
2022-08-12T06:26:41.813Z,113.94
2022-08-12T06:27:41.791Z,113.56
2022-08-12T06:28:41.767Z,113.71
2022-08-12T06:30:06.791Z,114.10
2022-08-12T06:30:42.037Z,113.48
2022-08-12T06:31:47.012Z,113.40
2022-08-12T06:32:51.940Z,113.18
2022-08-12T06:33:56.106Z,114.02
2022-08-12T06:35:23.932Z,113.40
2022-08-12T06:35:48.719Z,113.10
2022-08-12T06:36:48.437Z,112.79
2022-08-12T06:37:40.699Z,112.64
2022-08-12T06:38:40.943Z,113.64
2022-08-12T06:39:40.653Z,112.72
2022-08-12T06:40:40.701Z,112.79
2022-08-12T06:42:33.012Z,180.69
2022-08-12T06:43:25.567Z,148.23
2022-08-12T06:44:24.057Z,134.21
2022-08-12T06:45:24.065Z,126.22
2022-08-12T06:46:25.055Z,122.08
2022-08-12T06:47:30.326Z,120.07
2022-08-12T06:48:24.004Z,118.54
2022-08-12T06:49:24.002Z,117.13
2022-08-12T06:50:24.068Z,115.28
2022-08-12T06:51:23.984Z,114.33
2022-08-12T06:52:30.245Z,113.87
2022-08-12T06:53:23.935Z,114.02
2022-08-12T06:54:30.786Z,113.25
2022-08-12T06:55:25.451Z,112.42
2022-08-12T06:56:35.005Z,112.87
2022-08-12T06:58:08.090Z,112.04
2022-08-12T06:58:31.158Z,111.59
2022-08-12T06:59:23.866Z,111.52
2022-08-12T07:00:30.679Z,111.82
2022-08-12T07:01:25.378Z,112.26
2022-08-12T07:02:23.857Z,111.52
2022-08-12T07:03:23.898Z,110.42
2022-08-12T07:04:38.822Z,111.29
2022-08-12T07:05:25.318Z,110.85
2022-08-12T07:06:23.785Z,110.85
2022-08-12T07:07:23.757Z,110.93
2022-08-12T07:08:23.747Z,110.42
2022-08-12T07:10:05.198Z,110.49
2022-08-12T07:10:24.853Z,110.05
2022-08-12T07:11:23.748Z,109.69
2022-08-12T07:12:23.685Z,110.27
2022-08-12T07:13:24.011Z,109.40
2022-08-12T07:14:30.017Z,109.69
2022-08-12T07:15:23.973Z,109.40
2022-08-12T07:16:23.687Z,110.20
2022-08-12T07:17:23.624Z,109.55
2022-08-12T07:18:23.622Z,109.48
2022-08-12T07:19:23.632Z,109.12
2022-08-12T07:20:51.217Z,109.62
2022-08-12T07:21:24.927Z,108.77
2022-08-12T07:22:24.558Z,108.77
2022-08-12T07:23:23.640Z,108.84
2022-08-12T07:24:23.536Z,108.62
2022-08-12T07:25:29.854Z,108.91
2022-08-12T07:26:26.758Z,108.55
2022-08-12T07:27:23.561Z,108.41
2022-08-12T07:28:23.506Z,108.13
2022-08-12T07:30:00.119Z,108.13
2022-08-12T07:30:31.783Z,107.65
2022-08-12T07:31:23.470Z,107.23
2022-08-12T07:32:23.771Z,107.58
2022-08-12T07:33:23.435Z,107.17
2022-08-12T07:34:23.745Z,107.51
2022-08-12T07:35:29.835Z,107.51
2022-08-12T07:36:23.677Z,107.03
2022-08-12T07:37:23.416Z,106.69
2022-08-12T07:38:29.600Z,107.30
2022-08-12T07:39:24.912Z,106.69
2022-08-12T07:40:23.377Z,105.88
2022-08-12T07:41:29.617Z,106.48
2022-08-12T07:42:23.316Z,106.35
2022-08-12T07:43:23.305Z,106.35
2022-08-12T07:44:23.599Z,106.55
2022-08-12T07:45:23.622Z,105.81
2022-08-12T07:46:23.261Z,105.68
2022-08-12T07:47:29.539Z,105.74
2022-08-12T07:48:23.246Z,105.94
2022-08-12T07:49:23.283Z,105.48
2022-08-12T07:50:24.028Z,105.68
2022-08-12T07:51:25.593Z,105.54
2022-08-12T07:52:29.461Z,105.68
2022-08-12T07:53:23.193Z,104.82
2022-08-12T07:54:23.215Z,104.17
2022-08-12T07:55:23.166Z,105.08
2022-08-12T07:56:23.152Z,104.10
2022-08-12T07:57:45.173Z,103.97
2022-08-12T07:58:23.113Z,104.43
2022-08-12T07:59:24.100Z,103.71
2022-08-12T08:00:23.440Z,103.71
2022-08-12T08:01:23.156Z,103.91
2022-08-12T08:02:26.808Z,103.59
2022-08-12T08:03:30.389Z,102.95
2022-08-12T08:04:23.987Z,103.33
2022-08-12T08:05:23.080Z,102.89
2022-08-12T08:06:23.040Z,102.57
2022-08-12T08:07:23.001Z,102.45
2022-08-12T08:08:30.415Z,102.70
2022-08-12T08:09:24.541Z,102.57
2022-08-12T08:10:24.810Z,102.45
2022-08-12T08:11:22.990Z,101.58
2022-08-12T08:12:23.280Z,101.95
2022-08-12T08:13:29.285Z,101.95
2022-08-12T08:14:23.239Z,101.89
2022-08-12T08:15:38.674Z,101.45
2022-08-12T08:16:24.886Z,101.21
2022-08-12T08:17:22.864Z,101.21
2022-08-12T08:18:29.163Z,101.21
2022-08-12T08:19:22.913Z,101.45
2022-08-12T08:20:22.886Z,100.90
2022-08-12T08:21:22.835Z,100.54
2022-08-12T08:22:41.080Z,100.60
2022-08-12T08:23:29.313Z,100.60
2022-08-12T08:24:30.684Z,100.30
2022-08-12T08:25:35.846Z,100.24
2022-08-12T08:26:24.255Z,99.94
2022-08-12T08:27:22.747Z,100.00
2022-08-12T08:28:22.785Z,99.23
2022-08-12T08:29:23.681Z,99.70
2022-08-12T08:30:29.050Z,99.41
2022-08-12T08:31:23.227Z,99.52
2022-08-12T08:32:23.153Z,99.05
2022-08-12T08:34:09.460Z,99.23
2022-08-12T08:34:33.805Z,99.58
2022-08-12T08:35:38.750Z,99.23
2022-08-12T08:36:24.429Z,98.59
2022-08-12T08:37:22.616Z,98.70
2022-08-12T08:38:32.177Z,99.00
2022-08-12T08:39:24.377Z,98.36
2022-08-12T08:40:22.638Z,98.94
2022-08-12T08:42:16.493Z,98.36
2022-08-12T08:42:23.824Z,97.78
2022-08-12T08:43:22.548Z,98.07
2022-08-12T08:44:22.550Z,98.12
2022-08-12T08:45:22.569Z,98.07
2022-08-12T08:46:28.934Z,97.95
2022-08-12T08:47:22.784Z,97.89
2022-08-12T08:48:22.843Z,97.61
2022-08-12T08:49:22.449Z,97.84
2022-08-12T08:50:22.496Z,97.55
2022-08-12T08:51:22.500Z,97.21
2022-08-12T08:52:46.392Z,96.82
2022-08-12T08:53:23.937Z,97.04
2022-08-12T08:54:22.410Z,96.82
2022-08-12T08:55:33.407Z,96.65
2022-08-12T08:56:27.776Z,97.10
2022-08-12T08:57:22.440Z,96.71
2022-08-12T08:58:28.907Z,96.82
2022-08-12T08:59:22.367Z,96.43
2022-08-12T09:00:23.071Z,96.26
2022-08-12T09:01:22.501Z,95.93
2022-08-12T09:02:23.484Z,95.99
2022-08-12T09:05:08.567Z,96.10
2022-08-12T09:05:14.398Z,95.99
2022-08-12T09:05:23.277Z,95.71
2022-08-12T09:07:44.193Z,95.33
2022-08-12T09:08:29.658Z,95.28
2022-08-12T09:09:22.219Z,95.28
2022-08-12T09:10:30.547Z,95.39
2022-08-12T09:14:12.594Z,95.44
2022-08-12T09:14:29.254Z,94.79
2022-08-12T09:16:23.362Z,94.74
2022-08-12T09:17:22.085Z,94.74
2022-08-12T09:18:33.723Z,95.01
2022-08-12T09:19:26.866Z,94.53
2022-08-12T09:20:29.314Z,94.53
2022-08-12T09:21:23.611Z,94.37
2022-08-12T09:22:22.068Z,94.10
2022-08-12T09:23:58.695Z,94.26
2022-08-12T09:25:25.700Z,94.00
2022-08-12T09:26:28.189Z,95.68
2022-08-12T09:27:28.761Z,94.05
2022-08-12T09:28:22.981Z,93.78
2022-08-12T09:30:11.489Z,95.46
2022-08-12T09:30:42.210Z,95.46
2022-08-12T09:32:03.696Z,95.03
2022-08-12T09:33:03.948Z,95.36
2022-08-12T09:34:28.085Z,95.14
2022-08-12T09:34:28.503Z,95.14
2022-08-12T09:35:30.594Z,95.14
2022-08-12T09:36:31.352Z,95.14
2022-08-12T09:37:22.835Z,95.03
2022-08-12T09:38:27.973Z,95.03
2022-08-12T09:40:04.298Z,94.82
2022-08-12T09:41:01.842Z,94.82
2022-08-12T09:42:33.915Z,94.92
2022-08-12T09:42:42.984Z,94.71
2022-08-12T09:43:24.685Z,94.50
2022-08-12T09:44:38.922Z,94.28
2022-08-12T09:46:06.631Z,93.96
2022-08-12T09:46:25.707Z,93.96
2022-08-12T09:47:21.782Z,94.07
2022-08-12T09:48:23.472Z,94.07
2022-08-12T09:49:24.012Z,93.86
2022-08-12T09:50:28.307Z,93.44
2022-08-12T09:51:22.785Z,93.44
2022-08-12T09:52:21.664Z,93.13
2022-08-12T09:53:36.205Z,93.03
2022-08-12T09:54:34.192Z,92.72
2022-08-12T09:56:06.990Z,92.92
2022-08-12T09:56:58.276Z,92.61
2022-08-12T09:58:45.628Z,92.61
2022-08-12T09:58:57.299Z,92.61
2022-08-12T10:00:12.819Z,92.61
2022-08-12T10:00:29.032Z,92.41
2022-08-12T10:01:34.684Z,92.41
2022-08-12T10:02:45.561Z,91.90
2022-08-12T10:03:32.667Z,92.92
2022-08-12T10:04:24.106Z,92.41
2022-08-12T10:05:21.553Z,92.00
2022-08-12T10:06:31.842Z,91.80
2022-08-12T10:07:39.491Z,91.80
2022-08-12T10:08:22.977Z,91.80
2022-08-12T10:09:21.482Z,91.60
2022-08-12T10:10:24.062Z,91.80
2022-08-12T10:11:21.419Z,91.80
2022-08-12T10:12:31.617Z,91.50
2022-08-12T10:13:34.592Z,91.60
2022-08-12T10:14:33.307Z,91.40
2022-08-12T10:16:02.645Z,91.30
2022-08-12T10:16:23.315Z,91.20
2022-08-12T10:17:21.692Z,91.10
2022-08-12T10:18:22.253Z,91.20
2022-08-12T10:19:36.390Z,90.81
2022-08-12T10:20:22.859Z,91.00
2022-08-12T10:21:23.394Z,90.71
2022-08-12T10:22:39.006Z,91.40
2022-08-12T10:23:40.432Z,90.51
2022-08-12T10:24:29.058Z,90.71
2022-08-12T10:25:21.261Z,91.60
2022-08-12T10:26:37.340Z,91.40
2022-08-12T10:27:23.760Z,91.40
2022-08-12T10:28:25.366Z,90.61
2022-08-12T10:30:40.087Z,90.71
2022-08-12T10:30:40.710Z,90.12
2022-08-12T10:31:22.672Z,91.00
2022-08-12T10:32:44.313Z,90.22
2022-08-12T10:33:31.181Z,90.81
2022-08-12T10:34:28.895Z,90.81
2022-08-12T10:35:21.100Z,89.83
2022-08-12T10:36:21.119Z,90.61
2022-08-12T10:38:34.891Z,90.81
2022-08-12T10:38:37.559Z,90.12
2022-08-12T10:40:01.676Z,90.51
2022-08-12T10:40:32.050Z,89.93
2022-08-12T10:41:22.357Z,89.83
2022-08-12T10:42:29.296Z,90.32
2022-08-12T10:43:22.023Z,89.64
2022-08-12T10:44:21.214Z,90.03
2022-08-12T10:45:27.379Z,89.45
2022-08-12T10:46:21.115Z,89.26
2022-08-12T10:47:26.675Z,90.32
2022-08-12T10:48:37.176Z,90.03
2022-08-12T10:50:03.226Z,89.74
2022-08-12T10:50:33.770Z,89.16
2022-08-12T10:52:02.899Z,89.83
2022-08-12T10:52:34.856Z,89.54
2022-08-12T10:53:21.902Z,88.79
2022-08-12T10:54:22.384Z,89.64
2022-08-12T10:55:21.119Z,89.26
2022-08-12T10:56:34.711Z,88.88
2022-08-12T10:58:15.560Z,89.07
2022-08-12T10:58:30.968Z,89.07
2022-08-12T10:59:32.129Z,88.79
2022-08-12T11:00:33.974Z,89.26
2022-08-12T11:04:20.168Z,88.79
2022-08-12T11:04:20.741Z,88.69
2022-08-12T11:04:26.954Z,88.60
2022-08-12T11:04:39.394Z,88.88
2022-08-12T11:07:05.442Z,88.60
2022-08-12T11:07:07.541Z,88.32
2022-08-12T11:08:36.997Z,88.50
2022-08-12T11:08:37.929Z,88.69
2022-08-12T11:09:55.628Z,88.69
2022-08-12T11:10:26.530Z,88.22
2022-08-12T11:12:34.605Z,88.13
2022-08-12T11:12:55.610Z,88.13
2022-08-12T11:13:46.301Z,88.32
2022-08-12T11:14:49.764Z,87.76
2022-08-12T11:15:33.539Z,88.04
2022-08-12T11:16:36.610Z,87.76
2022-08-12T11:17:43.319Z,87.76
2022-08-12T11:18:21.568Z,87.49
2022-08-12T11:19:26.949Z,87.12
2022-08-12T11:20:20.659Z,87.31
2022-08-12T11:21:20.552Z,87.21
2022-08-12T11:22:24.190Z,86.94
2022-08-12T11:23:26.032Z,86.94
2022-08-12T11:24:30.320Z,86.67
2022-08-12T11:25:20.515Z,86.49
2022-08-12T11:26:21.473Z,86.94
2022-08-12T11:27:20.472Z,86.58
2022-08-12T11:28:34.419Z,86.49
2022-08-12T11:29:24.151Z,86.40
2022-08-12T11:30:31.618Z,86.32
2022-08-12T11:31:24.329Z,85.96
2022-08-12T11:32:20.426Z,86.14
2022-08-12T11:33:52.614Z,86.14
2022-08-12T11:34:53.058Z,85.43
2022-08-12T11:35:22.811Z,85.78
2022-08-12T11:36:26.671Z,86.05
2022-08-12T11:37:25.824Z,85.61
2022-08-12T11:38:21.303Z,85.61
2022-08-12T11:39:23.623Z,85.43
2022-08-12T11:40:21.283Z,85.70
2022-08-12T11:41:28.084Z,85.87
2022-08-12T11:42:51.682Z,135.74
2022-08-12T11:43:58.222Z,112.26
2022-08-12T11:44:53.193Z,101.45
2022-08-12T11:45:53.100Z,96.04
2022-08-12T11:46:53.259Z,94.39
2022-08-12T11:47:57.703Z,92.11
2022-08-12T11:48:52.668Z,90.91
2022-08-12T11:49:51.986Z,89.54
2022-08-12T11:50:51.365Z,89.35
2022-08-12T11:51:57.663Z,88.50
2022-08-12T11:52:55.524Z,88.32
2022-08-12T11:54:01.301Z,87.76
2022-08-12T11:54:51.380Z,87.76
2022-08-12T11:55:51.398Z,87.31
2022-08-12T11:56:52.361Z,87.03
2022-08-12T11:58:48.947Z,86.85
2022-08-12T12:02:02.377Z,86.23
2022-08-12T12:02:52.760Z,86.40
2022-08-12T12:03:51.213Z,86.05
2022-08-12T12:04:53.100Z,85.61
2022-08-12T12:06:00.517Z,85.00
2022-08-12T12:06:52.968Z,84.92
2022-08-12T12:08:37.446Z,85.09
2022-08-12T12:08:53.663Z,84.57
2022-08-12T12:09:53.355Z,84.57
2022-08-12T12:10:52.121Z,84.23
2022-08-12T12:11:57.878Z,84.40
2022-08-12T12:12:51.200Z,83.98
2022-08-12T12:14:06.696Z,84.06
2022-08-12T12:14:54.877Z,83.73
2022-08-12T12:15:51.454Z,83.81
2022-08-12T12:16:51.199Z,83.14
2022-08-12T12:18:08.460Z,82.90
2022-08-12T12:18:51.027Z,82.90
2022-08-12T12:19:51.119Z,82.73
2022-08-12T12:20:51.032Z,82.57
2022-08-12T12:21:51.058Z,82.49
2022-08-12T12:22:51.011Z,82.73
2022-08-12T12:24:00.780Z,82.49
2022-08-12T12:24:51.563Z,82.49
2022-08-12T12:26:07.340Z,82.41
2022-08-12T12:27:00.617Z,82.25
2022-08-12T12:28:05.118Z,82.65
2022-08-12T12:28:58.711Z,82.41
2022-08-12T12:30:19.045Z,82.25
2022-08-12T12:30:54.789Z,82.41
2022-08-12T12:32:10.153Z,82.25
2022-08-12T12:32:53.343Z,82.33
2022-08-12T12:33:58.949Z,82.25
2022-08-12T12:35:13.589Z,82.08
2022-08-12T12:36:06.221Z,81.61
2022-08-12T12:36:54.646Z,81.37
2022-08-12T12:38:04.373Z,81.13
2022-08-12T12:38:52.292Z,80.74
2022-08-12T12:39:58.134Z,80.74
2022-08-12T12:40:50.792Z,80.58
2022-08-12T12:42:42.665Z,80.35
2022-08-12T12:42:55.269Z,80.04
2022-08-12T12:44:03.836Z,79.89
2022-08-12T12:44:58.747Z,79.59
2022-08-12T12:45:53.484Z,79.89